x

Portland 12 Nm Southeast Of Portland,me (44007) Wave Buoy

8:50 - Sun 23rd Apr 2017 All times are EDT. -4 hours from GMT.

  • Sig Wave height 4.3ft
  • Swell Direction
  • Peak Period 8s
  • Average Period 6s
  • Wind
    13mph, 16mph gusts
  • Sea Temp 45°f
  • Aire Temp 45°f
  • Sea Pressure 1017mb
  • Portland 12 Nm Southeast Of Portland,me
  • Portland 12 Nm Southeast Of Portland,me

More Historic Weather Station data

Upgrade to MSW Pro to gain access to the past 30 days of data for over 8000 Wavebouys and Weather Stations around the globe.

Join Pro

Comparision Forecast

View Surf forecast
   
dom 04/23 8:50 4.5ft 8s 6s 13 16 mph 1017mb 45f 45f
7:50 4ft 13s 6s 13 16 mph 1016.9mb 44f 45f
6:50 4.5ft 12s 6s 13
mph
1016.8mb 45f 46f
5:50 4ft 13s 6s 13 16 mph 1016.4mb 45f 46f
4:50 4.5ft 12s 6s 16 18 mph 1016.4mb 45f 46f
3:50 4.5ft 12s 7s 13 16 mph 1016.9mb 46f 46f
2:50 4.5ft 12s 8s 13 16 mph 1017.3mb 47f 46f
1:50 5ft 13s 9s 11 13 mph 1017.5mb 46f 46f
12:50 4.5ft 12s 8s 9
mph
1017.6mb 46f 46f
11:50 4.5ft 11s 7s 7 9 mph 1018mb 46f 47f
10:50 4ft 13s 7s 4 7 mph 1018.1mb 45f 46f
9:50 4.5ft 11s 7s 7
mph
1017.8mb 44f 46f
8:50 4.5ft 8s 7s 4 7 mph 1017.7mb 44f 44f
7:50 4.5ft 8s 7s 4 7 mph 1017mb 43f 42f
6:50 4.5ft 11s 7s 4 7 mph 1016.1mb 43f 41f
5:50 5ft 8s 7s 7 9 mph 1015.4mb 43f 38f
4:50 5ft 7s 7s 9 11 mph 1015mb 43f 38f
3:50 6ft 8s 7s 9 11 mph 1015.1mb 43f 40f
2:50 5.5ft 9s 7s 9 11 mph 1014.8mb 43f 41f
1:50 5.5ft 8s 7s 7 9 mph 1014.9mb 43f 40f
12:50 5.5ft 8s 7s 7 9 mph 1014.5mb 43f 40f
sáb 04/22 11:50 6.5ft 8s 6s 7 9 mph 1014.4mb 43f 40f
10:50 6ft 8s 6s 9 11 mph 1014.6mb 43f 41f
9:50 7ft 8s 6s 9 11 mph 1014.6mb 43f 41f
7:50 7ft 8s 6s 11 13 mph 1014.2mb 43f 41f
6:50 6ft 8s 6s 13 16 mph 1014.2mb 43f 41f
5:50 7ft 7s 6s 9 11 mph 1014.3mb 43f 40f
4:50 6.5ft 7s 6s 13 16 mph 1013.8mb 43f 40f
3:50 6.5ft 7s 6s 16 18 mph 1013.9mb 43f 40f
2:50 6ft 7s 6s 16 18 mph 1014.4mb 43f 40f
1:50 5.5ft 7s 6s 16 18 mph 1014.6mb 43f 40f
12:50 6ft 6s 6s 18 20 mph 1014.3mb 43f 40f
11:50 6ft 7s 6s 13 16 mph 1015.1mb 43f 40f
10:50 5.5ft 7s 5s 13 16 mph 1015.5mb 43f 40f
9:50 6ft 7s 5s 16 18 mph 1015.2mb 43f 40f
7:50 5ft 6s 5s 16 18 mph 1015.6mb 43f 40f
6:50 6ft 7s 5s 18 22 mph 1015.4mb 43f 40f
5:50 6ft 7s 5s 20 25 mph 1015mb 43f 40f
4:50 6ft 7s 5s 22 25 mph 1015.4mb 43f 40f
3:50 5.5ft 7s 6s 20 25 mph 1016.1mb 43f 40f
2:50 5.5ft 7s 6s 16 18 mph 1016.7mb 43f 40f
1:50 5ft 7s 6s 13 16 mph 1017.2mb 43f 40f
12:50 5.5ft 7s 6s 13 16 mph 1017.4mb 43f 40f
vie 04/21 11:50 6ft 7s 6s 13 16 mph 1017.8mb 42f 40f
10:50 5ft 6s 5s 11 13 mph 1018mb 43f 40f
9:50 5ft 7s 5s 11 13 mph 1018.4mb 43f 40f
7:50 5.5ft 6s 5s 18 22 mph 1017.7mb 43f 40f
6:50 5ft 6s 5s 20 22 mph 1017.8mb 43f 41f
5:50 5.5ft 6s 5s 20 25 mph 1017.6mb 43f 41f
4:50 5.5ft 7s 5s 18 20 mph 1018.2mb 43f 41f
3:50 5.5ft 6s 5s 20 22 mph 1018.2mb 43f 40f
2:50 5ft 6s 5s 16 20 mph 1019.9mb 43f 40f
1:50 5ft 9s 5s 20 22 mph 1019.8mb 43f 40f
12:50 5ft 6s 5s 18 20 mph 1020.7mb 43f 40f
11:50 5ft 5s 5s 16 20 mph 1020.9mb 43f 41f
10:50 4.5ft 6s 5s 18 20 mph 1021.3mb 43f 41f
8:50 4.5ft 10s 4s 20 25 mph 1020.5mb 43f 42f
7:50 4ft 4s 4s 20 25 mph 1020.9mb 43f 42f
6:50 4ft 10s 4s 18 22 mph 1021.2mb 43f 42f
5:50 3.5ft 8s 4s 18 20 mph 1021mb 43f 42f
4:50 3.5ft 10s 5s 18 20 mph 1020.7mb 44f 42f
3:50 3.5ft 10s 5s 16 18 mph 1021.1mb 44f 42f
2:50 3.5ft 9s 5s 13 16 mph 1021.7mb 44f 42f
1:50 3.5ft 9s 5s 11 16 mph 1022.1mb 44f 42f
12:50 3.5ft 9s 5s 13 16 mph 1022.2mb 44f 42f
jue 04/20 11:50 3.5ft 10s 5s 16 20 mph 1021.9mb 44f 43f
10:50 3.5ft 10s 5s 18 20 mph 1021.7mb 44f 43f
9:50 3.5ft 10s 5s 16 18 mph 1022.2mb 44f 44f
8:50 3.5ft 5s 5s 16 20 mph 1021.9mb 44f 44f
7:50 3ft 6s 5s 16 20 mph 1021.4mb 44f 44f
6:50 3.5ft 10s 6s 9 11 mph 1021.2mb 44f 45f
5:50 3.5ft 7s 6s 11 13 mph 1020.6mb 45f 45f
4:50 3.5ft 6s 6s 9 11 mph 1021mb 45f 45f
3:50 3.5ft 8s 5s 7
mph
1021mb 45f 45f
2:50 3.5ft 6s 5s 7 9 mph 1020.9mb 45f 46f
1:50 3.5ft 6s 5s 7
mph
1020.9mb 45f 45f
12:50 4ft 5s 5s 4 7 mph 1020.8mb 45f 45f
11:50 4.5ft 6s 5s 2
mph
1021.3mb 44f 45f
10:50 4.5ft 6s 5s 2
mph
1020.9mb 42f 45f
9:50 4ft 6s 5s 2
mph
1021.2mb 42f 44f
8:50 4.5ft 6s 5s 4 7 mph 1021mb 43f 44f
7:50 4.5ft 6s 5s 9
mph
1021mb 43f 44f
6:50 5ft 6s 5s 11 16 mph 1020.6mb 43f 44f
5:50 5.5ft 7s 5s 13 16 mph 1020.4mb 43f 43f
4:50 5.5ft 7s 5s 16 20 mph 1020.6mb 44f 43f
3:50 6ft 7s 5s 20 25 mph 1020.9mb 44f 43f
2:50 6ft 7s 5s 20 25 mph 1021.3mb 44f 43f
1:50 6.5ft 7s 5s 22 27 mph 1022.1mb 44f 43f